createdAt,value
2022-09-13T00:02:17.258Z,99.90
2022-09-13T00:04:44.171Z,99.90
2022-09-13T00:07:11.022Z,99.90
2022-09-13T00:09:37.964Z,99.90
2022-09-13T00:12:05.020Z,99.90
2022-09-13T00:14:31.859Z,99.90
2022-09-13T00:16:58.676Z,99.90
2022-09-13T00:19:25.512Z,99.90
2022-09-13T00:21:52.364Z,99.90
2022-09-13T00:24:19.204Z,99.90
2022-09-13T00:26:46.085Z,99.90
2022-09-13T00:29:12.931Z,99.90
2022-09-13T00:31:39.864Z,99.90
2022-09-13T00:34:06.732Z,99.90
2022-09-13T00:36:33.578Z,99.90
2022-09-13T00:39:01.450Z,99.90
2022-09-13T00:41:28.318Z,99.90
2022-09-13T00:44:02.033Z,99.90
2022-09-13T00:46:35.307Z,99.90
2022-09-13T00:49:17.225Z,99.90
2022-09-13T00:51:49.321Z,99.90
2022-09-13T00:54:17.934Z,99.90
2022-09-13T00:56:50.938Z,99.90
2022-09-13T00:59:33.474Z,99.90
2022-09-13T01:02:04.011Z,99.90
2022-09-13T01:04:34.642Z,99.90
2022-09-13T01:07:04.712Z,99.90
2022-09-13T01:09:33.482Z,99.90
2022-09-13T01:12:08.329Z,99.90
2022-09-13T01:14:36.148Z,99.90
2022-09-13T01:17:03.375Z,99.90
2022-09-13T01:19:30.272Z,99.90
2022-09-13T01:22:28.348Z,99.90
2022-09-13T01:26:00.252Z,99.90
2022-09-13T01:28:49.866Z,99.90
2022-09-13T01:31:48.031Z,99.90
2022-09-13T01:34:35.907Z,99.90
2022-09-13T01:37:15.808Z,99.90
2022-09-13T01:40:00.204Z,99.90
2022-09-13T01:42:41.613Z,99.90
2022-09-13T01:45:33.864Z,99.90
2022-09-13T01:48:10.099Z,99.90
2022-09-13T01:50:44.563Z,99.90
2022-09-13T01:53:29.612Z,99.90
2022-09-13T01:55:56.286Z,99.90
2022-09-13T01:58:28.624Z,99.90
2022-09-13T02:01:16.757Z,99.90
2022-09-13T02:03:56.079Z,99.90
2022-09-13T02:06:32.663Z,99.90
2022-09-13T02:09:09.838Z,99.90
2022-09-13T02:11:38.382Z,99.90
2022-09-13T02:14:19.073Z,99.90
2022-09-13T02:17:11.444Z,99.90
2022-09-13T02:19:50.366Z,99.90
2022-09-13T02:22:23.224Z,99.90
2022-09-13T02:24:55.886Z,99.90
2022-09-13T02:27:27.303Z,99.90
2022-09-13T02:29:58.788Z,99.90
2022-09-13T02:32:32.794Z,99.90
2022-09-13T02:35:12.226Z,99.90
2022-09-13T02:37:42.514Z,99.90
2022-09-13T02:40:15.361Z,99.90
2022-09-13T02:42:50.019Z,99.90
2022-09-13T02:45:18.025Z,99.90
2022-09-13T02:48:00.806Z,99.90
2022-09-13T02:51:12.895Z,99.90
2022-09-13T02:53:53.507Z,99.90
2022-09-13T02:56:24.154Z,99.90
2022-09-13T02:59:01.079Z,99.90
2022-09-13T03:01:28.242Z,99.90
2022-09-13T03:03:55.211Z,99.90
2022-09-13T03:06:26.772Z,99.90
2022-09-13T03:09:00.661Z,99.90
2022-09-13T03:11:56.452Z,99.90
2022-09-13T03:14:33.440Z,99.90
2022-09-13T03:17:18.887Z,99.90
2022-09-13T03:19:51.495Z,99.90
2022-09-13T03:22:34.154Z,99.90
2022-09-13T03:25:16.034Z,99.90
2022-09-13T03:28:21.620Z,99.90
2022-09-13T03:30:51.949Z,99.90
2022-09-13T03:33:31.668Z,99.90
2022-09-13T03:36:11.199Z,99.90
2022-09-13T03:38:42.877Z,99.90
2022-09-13T03:41:17.302Z,99.90
2022-09-13T03:43:58.838Z,99.90
2022-09-13T03:46:54.679Z,99.90
2022-09-13T03:49:24.633Z,99.90
2022-09-13T03:51:52.999Z,99.90
2022-09-13T03:54:32.614Z,99.90
2022-09-13T03:57:21.462Z,99.90
2022-09-13T03:59:50.876Z,99.90
2022-09-13T04:02:18.688Z,99.90
2022-09-13T04:04:46.493Z,99.90
2022-09-13T04:07:16.537Z,99.90
2022-09-13T04:09:43.385Z,99.90
2022-09-13T04:12:11.025Z,99.90
2022-09-13T04:14:38.120Z,99.90
2022-09-13T04:17:05.025Z,99.90
2022-09-13T04:19:31.947Z,99.90
2022-09-13T04:21:58.835Z,99.90
2022-09-13T04:24:29.666Z,99.90
2022-09-13T04:26:57.157Z,99.90
2022-09-13T04:29:25.664Z,99.90
2022-09-13T04:31:53.983Z,99.90
2022-09-13T04:34:23.144Z,99.90
2022-09-13T04:36:52.327Z,99.90
2022-09-13T04:39:20.244Z,99.90
2022-09-13T04:41:48.592Z,99.90
2022-09-13T04:44:17.344Z,99.90
2022-09-13T04:46:48.299Z,99.90
2022-09-13T04:49:16.732Z,99.90
2022-09-13T04:51:43.967Z,99.90
2022-09-13T04:54:15.166Z,99.90
2022-09-13T04:56:43.456Z,99.90
2022-09-13T04:59:11.456Z,99.90
2022-09-13T05:01:38.823Z,99.90
2022-09-13T05:04:07.493Z,99.90
2022-09-13T05:06:34.396Z,99.90
2022-09-13T05:09:01.485Z,99.90
2022-09-13T05:11:29.110Z,99.90
2022-09-13T05:13:58.013Z,99.90
2022-09-13T05:16:30.236Z,99.90
2022-09-13T05:18:58.119Z,99.90
2022-09-13T05:21:25.271Z,99.90
2022-09-13T05:23:52.575Z,99.90
2022-09-13T05:26:20.150Z,99.90
2022-09-13T05:28:47.495Z,99.90
2022-09-13T05:31:16.982Z,99.90
2022-09-13T05:33:45.223Z,99.90
2022-09-13T05:36:12.321Z,99.90
2022-09-13T05:38:39.213Z,99.90
2022-09-13T05:41:06.637Z,99.90
2022-09-13T05:43:35.395Z,99.90
2022-09-13T05:46:04.945Z,99.90
2022-09-13T05:48:33.089Z,99.90
2022-09-13T05:51:14.039Z,99.90
2022-09-13T05:53:42.972Z,99.90
2022-09-13T05:56:16.679Z,99.90
2022-09-13T05:58:45.748Z,99.90
2022-09-13T06:01:13.800Z,99.90
2022-09-13T06:03:40.949Z,99.90
2022-09-13T06:06:08.894Z,99.90
2022-09-13T06:08:36.350Z,99.90
2022-09-13T06:11:08.697Z,99.90
2022-09-13T06:13:36.288Z,99.90
2022-09-13T06:16:06.264Z,99.90
2022-09-13T06:22:20.254Z,99.90
2022-09-13T06:24:47.078Z,99.90
2022-09-13T06:27:13.908Z,99.90
2022-09-13T06:29:40.747Z,99.90
2022-09-13T06:35:55.234Z,99.90
2022-09-13T06:38:22.335Z,99.90
2022-09-13T06:40:49.217Z,99.10
2022-09-13T06:43:16.144Z,98.10
2022-09-13T06:45:42.980Z,99.90
2022-09-13T06:48:09.829Z,99.90
2022-09-13T06:50:36.791Z,99.00
2022-09-13T06:53:03.999Z,95.70
2022-09-13T06:55:30.824Z,97.60
2022-09-13T06:57:59.050Z,96.10
2022-09-13T07:00:26.066Z,96.20
2022-09-13T07:02:52.972Z,99.90
2022-09-13T07:05:20.848Z,96.50
2022-09-13T07:07:48.265Z,99.90
2022-09-13T07:10:15.110Z,94.40
2022-09-13T07:12:42.400Z,94.20
2022-09-13T07:15:09.816Z,94.20
2022-09-13T07:17:36.638Z,92.20
2022-09-13T07:20:06.014Z,86.60
2022-09-13T07:22:32.857Z,90.50
2022-09-13T07:25:00.283Z,93.90
2022-09-13T07:27:28.428Z,84.80
2022-09-13T07:29:55.334Z,88.70
2022-09-13T07:32:22.957Z,92.20
2022-09-13T07:34:49.751Z,91.40
2022-09-13T07:37:16.574Z,93.40
2022-09-13T07:39:43.431Z,94.80
2022-09-13T07:42:10.349Z,79.80
2022-09-13T07:44:37.183Z,82.60
2022-09-13T07:47:04.126Z,91.40
2022-09-13T07:49:30.989Z,74.90
2022-09-13T07:51:57.786Z,84.60
2022-09-13T07:54:24.684Z,76.20
2022-09-13T07:56:51.954Z,67.20
2022-09-13T07:59:19.673Z,68.40
2022-09-13T08:01:50.991Z,79.00
2022-09-13T08:04:21.180Z,66.30
2022-09-13T08:06:48.327Z,57.90
2022-09-13T08:09:16.120Z,55.10
2022-09-13T08:11:49.193Z,75.10
2022-09-13T08:14:19.113Z,64.20
2022-09-13T08:16:46.335Z,62.20
2022-09-13T08:19:16.186Z,68.60
2022-09-13T08:21:44.270Z,65.30
2022-09-13T08:24:17.338Z,78.50
2022-09-13T08:26:44.735Z,81.90
2022-09-13T08:29:12.739Z,81.80
2022-09-13T08:31:39.979Z,86.50
2022-09-13T08:34:12.980Z,76.70
2022-09-13T08:36:41.292Z,79.10
2022-09-13T08:39:09.686Z,78.50
2022-09-13T08:41:45.093Z,88.60
2022-09-13T08:44:31.188Z,87.80
2022-09-13T08:47:12.921Z,92.10
2022-09-13T08:49:45.192Z,95.80
2022-09-13T08:52:20.931Z,98.30
2022-09-13T08:54:49.405Z,98.30
2022-09-13T08:57:31.318Z,99.80
2022-09-13T09:00:25.927Z,99.90
2022-09-13T09:03:22.037Z,99.90
2022-09-13T09:05:51.029Z,98.00
2022-09-13T09:08:34.423Z,99.90
2022-09-13T09:11:26.725Z,99.90
2022-09-13T09:13:59.453Z,98.40
2022-09-13T09:16:45.946Z,99.90
2022-09-13T09:19:34.371Z,99.80
2022-09-13T09:25:42.154Z,98.50
2022-09-13T09:28:17.291Z,96.60
2022-09-13T09:30:58.914Z,99.90
2022-09-13T09:33:38.024Z,96.00
2022-09-13T09:36:18.638Z,98.40
2022-09-13T09:38:45.596Z,99.90
2022-09-13T09:41:14.592Z,99.90
2022-09-13T09:43:53.559Z,99.90
2022-09-13T09:46:26.221Z,99.90
2022-09-13T09:49:25.859Z,99.90
2022-09-13T09:51:54.080Z,99.90
2022-09-13T09:58:11.384Z,99.90
2022-09-13T10:00:52.539Z,99.90
2022-09-13T10:03:27.052Z,99.90
2022-09-13T10:06:28.604Z,99.90
2022-09-13T10:09:13.331Z,99.90
2022-09-13T10:11:40.192Z,99.90
2022-09-13T10:14:07.058Z,99.90
2022-09-13T10:16:34.271Z,99.90
2022-09-13T10:19:24.950Z,99.90
2022-09-13T10:22:11.332Z,99.90
2022-09-13T10:24:38.682Z,99.90
2022-09-13T10:27:22.246Z,99.90
2022-09-13T10:29:52.588Z,99.90
2022-09-13T10:32:19.899Z,99.90
2022-09-13T10:34:49.854Z,99.90
2022-09-13T10:37:33.929Z,99.90
2022-09-13T10:40:04.532Z,99.90
2022-09-13T10:42:31.493Z,99.90
2022-09-13T10:45:00.399Z,99.90
2022-09-13T10:47:48.006Z,99.90
2022-09-13T10:50:21.042Z,99.90
2022-09-13T10:52:49.206Z,99.90
2022-09-13T10:55:19.100Z,99.90
2022-09-13T10:57:48.347Z,99.90
2022-09-13T11:00:19.184Z,99.90
2022-09-13T11:02:57.977Z,99.90
2022-09-13T11:05:53.483Z,99.90
2022-09-13T11:08:51.400Z,99.90
2022-09-13T11:11:36.330Z,99.90
2022-09-13T11:14:10.800Z,99.90
2022-09-13T11:16:56.600Z,99.90
2022-09-13T11:19:35.254Z,99.90
2022-09-13T11:22:27.051Z,99.90
2022-09-13T11:25:17.973Z,99.90
2022-09-13T11:32:08.392Z,99.90
2022-09-13T11:34:57.623Z,93.90
2022-09-13T11:37:29.950Z,94.20
2022-09-13T11:40:09.985Z,79.00
2022-09-13T11:42:42.654Z,91.20
2022-09-13T11:45:28.501Z,91.30
2022-09-13T11:48:21.697Z,91.80
2022-09-13T11:51:10.106Z,90.00
2022-09-13T11:54:22.841Z,83.80
2022-09-13T11:56:56.063Z,69.70
2022-09-13T11:59:57.056Z,77.90
2022-09-13T12:02:35.310Z,83.30
2022-09-13T12:05:22.547Z,90.60
2022-09-13T12:07:52.706Z,90.90
2022-09-13T12:10:52.044Z,85.40
2022-09-13T12:13:24.087Z,89.00
2022-09-13T12:15:55.230Z,72.70
2022-09-13T12:18:28.290Z,68.30
2022-09-13T12:21:12.182Z,65.80
2022-09-13T12:24:00.752Z,56.60
2022-09-13T12:26:37.416Z,77.20
2022-09-13T12:29:25.945Z,66.30
2022-09-13T12:31:59.224Z,74.10
2022-09-13T12:34:48.405Z,74.60
2022-09-13T12:37:33.731Z,87.80
2022-09-13T12:40:28.432Z,83.40
2022-09-13T12:43:11.528Z,95.70
2022-09-13T12:46:35.926Z,97.30
2022-09-13T12:49:22.128Z,99.90
2022-09-13T12:52:07.831Z,99.90
2022-09-13T12:54:54.035Z,99.90
2022-09-13T12:57:57.567Z,99.90
2022-09-13T13:00:31.297Z,99.90
2022-09-13T13:03:05.647Z,99.90
2022-09-13T13:05:37.594Z,99.90
2022-09-13T13:08:17.641Z,99.90
2022-09-13T13:10:44.623Z,99.90
2022-09-13T13:13:43.206Z,99.90
2022-09-13T13:16:34.226Z,99.90
2022-09-13T13:19:05.714Z,99.90
2022-09-13T13:21:39.176Z,99.90
2022-09-13T13:24:28.856Z,99.90
2022-09-13T13:26:58.113Z,99.90
2022-09-13T13:29:32.485Z,99.90
2022-09-13T13:32:01.372Z,99.90
2022-09-13T13:34:52.543Z,99.90
2022-09-13T13:37:19.496Z,99.90
2022-09-13T13:39:48.874Z,99.90
2022-09-13T13:42:35.436Z,99.90
2022-09-13T13:45:02.193Z,99.90
2022-09-13T13:47:29.081Z,99.90
2022-09-13T13:50:14.077Z,99.90
2022-09-13T13:52:55.451Z,99.90
2022-09-13T13:55:43.542Z,99.90
2022-09-13T13:58:29.469Z,99.90
2022-09-13T14:00:58.774Z,99.90
2022-09-13T14:03:35.085Z,99.90
2022-09-13T14:06:37.906Z,99.90
2022-09-13T14:09:33.810Z,99.90
2022-09-13T14:12:40.838Z,99.90
2022-09-13T14:15:38.515Z,99.90
2022-09-13T14:18:47.869Z,99.90
2022-09-13T14:25:20.757Z,99.90
2022-09-13T14:27:48.920Z,99.90
2022-09-13T14:30:38.164Z,99.90
2022-09-13T14:33:06.143Z,99.90
2022-09-13T14:35:41.204Z,99.90
2022-09-13T14:38:20.494Z,99.90
2022-09-13T14:40:53.013Z,99.90
2022-09-13T14:43:22.516Z,99.90
2022-09-13T14:45:58.548Z,99.90
2022-09-13T14:48:28.030Z,99.90
2022-09-13T14:51:04.836Z,99.90
2022-09-13T14:53:34.003Z,99.90
2022-09-13T14:56:05.130Z,99.90
2022-09-13T14:58:40.311Z,99.90
2022-09-13T15:01:13.762Z,99.90
2022-09-13T15:03:44.946Z,99.90
2022-09-13T15:06:42.323Z,99.90
2022-09-13T15:09:11.937Z,99.90
2022-09-13T15:12:02.864Z,99.90
2022-09-13T15:14:37.434Z,99.90
2022-09-13T15:17:09.868Z,99.90
2022-09-13T15:19:38.094Z,99.90
2022-09-13T15:22:26.501Z,99.90
2022-09-13T15:24:56.429Z,99.90
2022-09-13T15:27:44.443Z,99.90
2022-09-13T15:30:29.762Z,99.90
2022-09-13T15:33:22.090Z,99.90
2022-09-13T15:35:49.049Z,99.90
2022-09-13T15:38:21.796Z,99.90
2022-09-13T15:41:18.485Z,99.90
2022-09-13T15:43:48.167Z,99.90
2022-09-13T15:46:16.846Z,99.90
2022-09-13T15:49:06.985Z,99.90
2022-09-13T15:51:39.085Z,99.90
2022-09-13T15:54:17.343Z,99.90
2022-09-13T15:56:46.747Z,99.90
2022-09-13T15:59:18.823Z,99.90
2022-09-13T16:01:47.557Z,99.90
2022-09-13T16:04:14.441Z,99.90
2022-09-13T16:06:41.899Z,99.90
2022-09-13T16:09:20.897Z,99.90
2022-09-13T16:11:48.853Z,99.90
2022-09-13T16:14:16.135Z,99.90
2022-09-13T16:16:44.081Z,99.90
2022-09-13T16:19:17.170Z,99.90
2022-09-13T16:21:44.447Z,99.90
2022-09-13T16:24:11.515Z,99.90
2022-09-13T16:26:39.524Z,99.90
2022-09-13T16:29:06.745Z,99.90
2022-09-13T16:31:34.201Z,99.90
2022-09-13T16:34:01.028Z,99.90
2022-09-13T16:36:29.027Z,99.90
2022-09-13T16:38:57.134Z,99.90
2022-09-13T16:41:24.575Z,99.90
2022-09-13T16:43:51.415Z,99.90
2022-09-13T16:46:18.345Z,99.90
2022-09-13T16:48:45.412Z,99.90
2022-09-13T16:51:13.380Z,99.90
2022-09-13T16:53:42.105Z,99.90
2022-09-13T16:56:14.495Z,99.90
2022-09-13T16:58:44.828Z,99.90
2022-09-13T17:01:13.453Z,99.90
2022-09-13T17:03:41.130Z,99.90
2022-09-13T17:06:11.221Z,99.90
2022-09-13T17:08:41.023Z,99.90
2022-09-13T17:11:13.312Z,99.90
2022-09-13T17:13:42.016Z,99.90
2022-09-13T17:16:21.975Z,99.90
2022-09-13T17:18:49.587Z,99.90
2022-09-13T17:21:16.509Z,99.90
2022-09-13T17:23:43.408Z,99.90
2022-09-13T17:26:10.791Z,99.90
2022-09-13T17:28:38.159Z,99.90
2022-09-13T17:31:05.731Z,99.90
2022-09-13T17:33:33.241Z,99.90
2022-09-13T17:36:05.834Z,99.90
2022-09-13T17:38:33.196Z,99.90
2022-09-13T17:41:11.899Z,99.90
2022-09-13T17:43:40.206Z,99.90
2022-09-13T17:46:13.847Z,99.90
2022-09-13T17:48:41.752Z,99.90
2022-09-13T17:51:12.227Z,99.90
2022-09-13T17:53:48.072Z,99.90
2022-09-13T17:56:26.566Z,99.90
2022-09-13T17:58:54.028Z,99.90
2022-09-13T18:01:21.294Z,99.90
2022-09-13T18:03:48.622Z,99.90
2022-09-13T18:06:16.490Z,99.90
2022-09-13T18:08:43.424Z,99.90
2022-09-13T18:11:14.542Z,99.90
2022-09-13T18:13:44.255Z,99.90
2022-09-13T18:16:20.024Z,99.90
2022-09-13T18:18:49.643Z,99.90
2022-09-13T18:21:19.826Z,99.90
2022-09-13T18:23:48.940Z,99.90
2022-09-13T18:26:18.238Z,99.90
2022-09-13T18:28:46.104Z,99.90
2022-09-13T18:31:15.998Z,99.90
2022-09-13T18:33:44.126Z,99.90
2022-09-13T18:36:16.518Z,99.90
2022-09-13T18:38:55.130Z,99.90
2022-09-13T18:41:24.936Z,99.90
2022-09-13T18:43:55.666Z,99.90
2022-09-13T18:46:28.805Z,99.90
2022-09-13T18:48:57.696Z,99.90
2022-09-13T18:51:30.741Z,99.90
2022-09-13T18:53:59.304Z,99.90
2022-09-13T18:56:27.676Z,99.90
2022-09-13T18:58:57.857Z,99.90
2022-09-13T19:01:32.421Z,99.90
2022-09-13T19:04:07.786Z,99.90
2022-09-13T19:06:42.740Z,99.90
2022-09-13T19:09:10.444Z,99.90
2022-09-13T19:11:48.465Z,99.90
2022-09-13T19:14:23.488Z,99.90
2022-09-13T19:16:51.152Z,99.90
2022-09-13T19:19:19.675Z,99.90
2022-09-13T19:21:47.101Z,99.90
2022-09-13T19:24:18.595Z,99.90
2022-09-13T19:26:47.881Z,99.90
2022-09-13T19:29:20.128Z,99.90
2022-09-13T19:31:52.930Z,99.90
2022-09-13T19:34:23.163Z,99.90
2022-09-13T19:36:57.578Z,99.90
2022-09-13T19:39:29.479Z,99.90
2022-09-13T19:45:55.693Z,99.90
2022-09-13T19:52:09.537Z,99.90
2022-09-13T19:54:37.219Z,99.90
2022-09-13T19:57:04.994Z,99.90
2022-09-13T19:59:34.994Z,99.90
2022-09-13T20:02:02.323Z,99.90
2022-09-13T20:04:30.482Z,99.90
2022-09-13T20:06:57.868Z,99.90
2022-09-13T20:09:26.401Z,99.90
2022-09-13T20:12:00.560Z,99.90
2022-09-13T20:14:28.359Z,99.90
2022-09-13T20:16:55.992Z,99.90
2022-09-13T20:19:40.679Z,99.90
2022-09-13T20:22:09.825Z,99.90
2022-09-13T20:24:37.976Z,99.90
2022-09-13T20:27:05.794Z,99.90
2022-09-13T20:29:32.841Z,99.90
2022-09-13T20:32:00.288Z,99.90
2022-09-13T20:34:28.222Z,99.90
2022-09-13T20:36:55.969Z,99.90
2022-09-13T20:39:22.946Z,99.90
2022-09-13T20:41:50.183Z,99.90
2022-09-13T20:44:17.432Z,99.90
2022-09-13T20:46:44.644Z,99.90
2022-09-13T20:49:11.959Z,99.90
2022-09-13T20:51:39.673Z,99.90
2022-09-13T20:54:07.266Z,99.90
2022-09-13T20:56:35.597Z,99.90
2022-09-13T20:59:03.397Z,99.90
2022-09-13T21:01:31.677Z,99.90
2022-09-13T21:03:59.486Z,99.90
2022-09-13T21:06:29.267Z,99.90
2022-09-13T21:09:00.028Z,99.90
2022-09-13T21:11:34.904Z,99.90
2022-09-13T21:14:07.513Z,99.90
2022-09-13T21:16:37.664Z,99.90
2022-09-13T21:19:05.075Z,99.90
2022-09-13T21:21:34.620Z,99.90
2022-09-13T21:24:04.567Z,99.90
2022-09-13T21:26:32.459Z,99.90
2022-09-13T21:29:00.187Z,99.90
2022-09-13T21:31:30.007Z,99.90
2022-09-13T21:34:04.271Z,99.90
2022-09-13T21:36:34.727Z,99.90
2022-09-13T21:39:02.427Z,99.90
2022-09-13T21:41:30.765Z,99.90
2022-09-13T21:43:57.899Z,99.90
2022-09-13T21:46:30.299Z,99.90
2022-09-13T21:48:59.245Z,99.90
2022-09-13T21:51:30.977Z,99.90
2022-09-13T21:53:59.512Z,99.90
2022-09-13T21:56:28.383Z,99.90
2022-09-13T21:58:58.522Z,99.90
2022-09-13T22:01:27.682Z,99.90
2022-09-13T22:03:54.858Z,99.90
2022-09-13T22:06:22.962Z,99.90
2022-09-13T22:08:55.858Z,99.90
2022-09-13T22:11:30.311Z,99.90
2022-09-13T22:13:57.764Z,99.90
2022-09-13T22:16:27.841Z,99.90
2022-09-13T22:19:00.182Z,99.90
2022-09-13T22:21:30.278Z,99.90
2022-09-13T22:23:58.382Z,99.90
2022-09-13T22:26:30.457Z,99.90
2022-09-13T22:28:58.398Z,99.90
2022-09-13T22:31:28.071Z,99.90
2022-09-13T22:33:56.555Z,99.90
2022-09-13T22:36:24.401Z,99.90
2022-09-13T22:38:54.978Z,99.90
2022-09-13T22:41:25.205Z,99.90
2022-09-13T22:43:52.824Z,99.90
2022-09-13T22:46:25.399Z,99.90
2022-09-13T22:48:53.816Z,99.90
2022-09-13T22:51:21.235Z,99.90
2022-09-13T22:53:50.147Z,99.90
2022-09-13T22:56:26.163Z,99.90
2022-09-13T22:58:58.304Z,99.90
2022-09-13T23:01:28.064Z,99.90
2022-09-13T23:03:55.321Z,99.90
2022-09-13T23:06:23.952Z,99.90
2022-09-13T23:08:53.787Z,99.90
2022-09-13T23:11:23.281Z,99.90
2022-09-13T23:13:52.505Z,99.90
2022-09-13T23:16:21.219Z,99.90
2022-09-13T23:18:49.007Z,99.90
2022-09-13T23:21:18.905Z,99.90
2022-09-13T23:23:46.013Z,99.90
2022-09-13T23:26:17.536Z,99.90
2022-09-13T23:28:46.409Z,99.90
2022-09-13T23:31:16.417Z,99.90
2022-09-13T23:33:45.998Z,99.90
2022-09-13T23:36:14.374Z,99.90
2022-09-13T23:38:44.941Z,99.90
2022-09-13T23:41:12.022Z,99.90
2022-09-13T23:43:39.109Z,99.90
2022-09-13T23:46:06.766Z,99.90
2022-09-13T23:48:35.230Z,99.90
2022-09-13T23:51:07.493Z,99.90
2022-09-13T23:53:37.034Z,99.90
2022-09-13T23:56:05.288Z,99.90
2022-09-13T23:58:32.192Z,99.90
